createdAt,value
2019-03-03T00:00:22.807Z,82.67
2019-03-03T00:02:52.370Z,82.57
2019-03-03T00:05:23.225Z,82.67
2019-03-03T00:07:52.705Z,82.53
2019-03-03T00:10:22.163Z,82.57
2019-03-03T00:12:51.621Z,82.59
2019-03-03T00:15:21.241Z,82.51
2019-03-03T00:18:09.825Z,82.41
2019-03-03T00:20:59.623Z,82.41
2019-03-03T00:23:29.434Z,82.41
2019-03-03T00:25:58.880Z,82.32
2019-03-03T00:28:51.208Z,82.26
2019-03-03T00:31:31.410Z,82.14
2019-03-03T00:34:00.959Z,82.18
2019-03-03T00:36:49.273Z,82.29
2019-03-03T00:39:37.585Z,82.15
2019-03-03T00:42:25.932Z,82.17
2019-03-03T00:45:14.418Z,82.13
2019-03-03T00:48:02.695Z,82.14
2019-03-03T00:50:39.576Z,82.18
2019-03-03T00:53:18.147Z,82.15
2019-03-03T00:55:53.090Z,82.10
2019-03-03T00:58:53.976Z,82.23
2019-03-03T01:01:42.676Z,82.25
2019-03-03T01:07:39.928Z,82.16
2019-03-03T01:13:49.076Z,82.66
2019-03-03T01:16:37.691Z,82.08
2019-03-03T01:19:25.985Z,82.14
2019-03-03T01:22:00.182Z,82.29
2019-03-03T01:24:48.649Z,82.34
2019-03-03T01:27:18.392Z,82.41
2019-03-03T01:29:50.845Z,82.41
2019-03-03T01:32:20.412Z,82.30
2019-03-03T01:34:49.918Z,82.41
2019-03-03T01:37:39.812Z,82.21
2019-03-03T01:40:21.093Z,82.35
2019-03-03T01:42:50.657Z,82.51
2019-03-03T01:45:20.163Z,82.51
2019-03-03T01:47:49.569Z,82.68
2019-03-03T01:50:19.152Z,82.76
2019-03-03T01:52:48.742Z,82.89
2019-03-03T01:55:18.278Z,83.17
2019-03-03T01:57:50.478Z,83.17
2019-03-03T02:00:39.207Z,83.32
2019-03-03T02:03:20.179Z,83.50
2019-03-03T02:06:01.002Z,83.59
2019-03-03T02:11:05.804Z,83.84
2019-03-03T02:13:35.256Z,83.74
2019-03-03T02:18:55.030Z,83.54
2019-03-03T02:21:24.920Z,83.63
2019-03-03T02:23:54.321Z,83.60
2019-03-03T02:26:23.897Z,83.58
2019-03-03T02:28:53.469Z,83.74
2019-03-03T02:31:25.940Z,83.81
2019-03-03T02:33:55.399Z,84.06
2019-03-03T02:36:25.281Z,84.26
2019-03-03T02:38:54.882Z,84.54
2019-03-03T02:41:54.550Z,84.54
2019-03-03T02:44:26.603Z,84.52
2019-03-03T02:47:15.106Z,85.14
2019-03-03T02:49:56.062Z,85.14
2019-03-03T02:52:26.098Z,84.98
2019-03-03T02:54:55.509Z,84.89
2019-03-03T02:57:25.465Z,85.11
2019-03-03T03:00:15.993Z,85.27
2019-03-03T03:09:18.211Z,85.55
2019-03-03T03:12:02.220Z,85.58
2019-03-03T03:14:46.041Z,85.61
2019-03-03T03:17:34.369Z,85.65
2019-03-03T03:20:29.370Z,85.52
2019-03-03T03:23:17.842Z,85.44
2019-03-03T03:26:06.163Z,85.30
2019-03-03T03:28:54.500Z,85.44
2019-03-03T03:31:34.662Z,85.37
2019-03-03T03:34:23.101Z,85.49
2019-03-03T03:37:11.480Z,85.56
2019-03-03T03:40:14.758Z,85.52
2019-03-03T03:43:23.559Z,85.52
2019-03-03T03:46:01.528Z,85.46
2019-03-03T03:48:42.868Z,85.30
2019-03-03T03:51:31.224Z,85.20
2019-03-03T03:54:19.692Z,85.17
2019-03-03T03:56:58.258Z,84.88
2019-03-03T03:59:46.533Z,84.88
2019-03-03T04:02:34.912Z,84.87
2019-03-03T04:05:42.178Z,84.64
2019-03-03T04:08:17.263Z,84.64
2019-03-03T04:11:00.126Z,85.05
2019-03-03T04:14:07.393Z,85.00
2019-03-03T04:17:00.862Z,85.11
2019-03-03T04:19:36.361Z,85.27
2019-03-03T04:22:33.748Z,85.20
2019-03-03T04:25:36.350Z,85.33
2019-03-03T04:28:12.141Z,85.42
2019-03-03T04:31:04.866Z,85.54
2019-03-03T04:33:42.844Z,85.62
2019-03-03T04:36:50.163Z,85.31
2019-03-03T04:39:38.644Z,85.31
2019-03-03T04:42:26.987Z,85.72
2019-03-03T04:45:15.239Z,85.79
2019-03-03T04:48:03.691Z,85.90
2019-03-03T04:54:08.338Z,85.96
2019-03-03T04:56:56.653Z,85.92
2019-03-03T04:59:45.064Z,85.80
2019-03-03T05:02:33.379Z,85.88
2019-03-03T05:08:07.455Z,85.91
2019-03-03T05:10:55.760Z,85.85
2019-03-03T05:14:01.432Z,85.86
2019-03-03T05:16:53.034Z,86.20
2019-03-03T05:22:01.325Z,86.34
2019-03-03T05:24:37.569Z,86.34
2019-03-03T05:27:07.013Z,86.21
2019-03-03T05:29:36.517Z,86.00
2019-03-03T05:32:06.046Z,86.00
2019-03-03T05:34:35.438Z,85.91
2019-03-03T05:37:04.882Z,85.88
2019-03-03T05:42:56.110Z,86.56
2019-03-03T05:45:46.120Z,86.56
2019-03-03T05:48:34.656Z,86.80
2019-03-03T05:53:39.445Z,86.63
2019-03-03T05:56:28.111Z,86.59
2019-03-03T05:58:59.060Z,86.59
2019-03-03T06:01:28.542Z,86.47
2019-03-03T06:03:58.107Z,86.65
2019-03-03T06:06:27.489Z,86.68
2019-03-03T06:09:00.342Z,86.83
2019-03-03T06:11:29.767Z,86.90
2019-03-03T06:13:59.161Z,86.98
2019-03-03T06:16:50.203Z,87.05
2019-03-03T06:19:19.783Z,87.03
2019-03-03T06:21:49.211Z,87.00
2019-03-03T06:24:41.333Z,87.29
2019-03-03T06:30:13.817Z,86.83
2019-03-03T06:32:43.225Z,86.67
2019-03-03T06:35:12.836Z,86.65
2019-03-03T06:37:42.306Z,86.58
2019-03-03T06:40:11.941Z,86.65
2019-03-03T06:43:00.277Z,86.74
2019-03-03T06:45:29.741Z,86.80
2019-03-03T06:48:18.246Z,86.89
2019-03-03T06:53:55.100Z,86.74
2019-03-03T06:59:20.361Z,86.90
2019-03-03T07:02:08.857Z,86.90
2019-03-03T07:04:38.342Z,87.06
2019-03-03T07:07:07.718Z,87.02
2019-03-03T07:09:37.093Z,86.96
2019-03-03T07:12:06.497Z,86.98
2019-03-03T07:14:35.883Z,87.03
2019-03-03T07:17:05.365Z,87.13
2019-03-03T07:19:34.784Z,87.31
2019-03-03T07:22:06.055Z,87.18
2019-03-03T07:24:35.596Z,87.24
2019-03-03T07:27:05.070Z,87.27
2019-03-03T07:29:34.981Z,87.09
2019-03-03T07:32:04.472Z,87.09
2019-03-03T07:34:34.141Z,87.26
2019-03-03T07:37:03.587Z,87.29
2019-03-03T07:39:35.413Z,87.37
2019-03-03T07:44:46.189Z,87.37
2019-03-03T07:47:27.347Z,87.28
2019-03-03T07:53:11.304Z,87.26
2019-03-03T07:55:40.977Z,87.20
2019-03-03T07:58:10.352Z,86.94
2019-03-03T08:00:48.884Z,86.68
2019-03-03T08:03:20.726Z,86.59
2019-03-03T08:05:50.755Z,86.80
2019-03-03T08:08:20.253Z,86.68
2019-03-03T08:10:49.774Z,86.33
2019-03-03T08:13:19.287Z,86.28
2019-03-03T08:15:48.761Z,86.39
2019-03-03T08:18:18.239Z,86.36
2019-03-03T08:23:23.009Z,86.42
2019-03-03T08:28:33.338Z,86.58
2019-03-03T08:31:03.254Z,86.58
2019-03-03T08:33:32.993Z,86.63
2019-03-03T08:38:56.126Z,86.64
2019-03-03T08:47:52.835Z,86.33
2019-03-03T08:53:39.659Z,86.62
2019-03-03T08:56:28.044Z,86.41
2019-03-03T08:59:14.271Z,86.42
2019-03-03T09:01:53.402Z,86.29
2019-03-03T09:04:41.841Z,86.28
2019-03-03T09:10:31.342Z,86.34
2019-03-03T09:13:20.115Z,86.01
2019-03-03T09:16:08.576Z,85.77
2019-03-03T09:18:56.896Z,85.71
2019-03-03T09:21:45.353Z,85.61
2019-03-03T09:24:33.690Z,85.53
2019-03-03T09:27:22.457Z,85.69
2019-03-03T09:30:10.714Z,85.83
2019-03-03T09:33:02.248Z,85.77
2019-03-03T09:35:50.798Z,86.02
2019-03-03T09:38:30.142Z,86.00
2019-03-03T09:41:10.179Z,86.15
2019-03-03T09:43:58.536Z,86.04
2019-03-03T09:46:46.920Z,86.22
2019-03-03T09:49:35.276Z,86.32
2019-03-03T09:55:37.367Z,86.45
2019-03-03T09:58:25.715Z,86.68
2019-03-03T10:01:14.228Z,86.59
2019-03-03T10:04:04.293Z,86.66
2019-03-03T10:07:07.678Z,86.82
2019-03-03T10:09:48.801Z,86.90
2019-03-03T10:12:38.915Z,86.63
2019-03-03T10:15:27.855Z,86.57
2019-03-03T10:18:16.510Z,86.53
2019-03-03T10:21:04.838Z,86.65
2019-03-03T10:23:53.226Z,86.47
2019-03-03T10:26:38.707Z,86.19
2019-03-03T10:29:27.536Z,86.13
2019-03-03T10:32:16.036Z,85.60
2019-03-03T10:35:12.885Z,85.93
2019-03-03T10:38:01.318Z,85.31
2019-03-03T10:40:49.770Z,84.66
2019-03-03T10:43:38.005Z,84.07
2019-03-03T10:46:16.835Z,83.10
2019-03-03T10:49:05.140Z,82.39
2019-03-03T10:51:53.574Z,81.45
2019-03-03T10:55:03.853Z,80.68
2019-03-03T10:57:52.405Z,80.51
2019-03-03T11:00:40.917Z,79.62
2019-03-03T11:03:29.306Z,79.68
2019-03-03T11:06:18.381Z,79.60
2019-03-03T11:09:06.808Z,78.95
2019-03-03T11:11:48.210Z,79.03
2019-03-03T11:14:36.910Z,79.17
2019-03-03T11:17:25.325Z,79.66
2019-03-03T11:20:13.895Z,79.28
2019-03-03T11:23:02.224Z,80.01
2019-03-03T11:25:50.768Z,79.77
2019-03-03T11:28:39.114Z,79.00
2019-03-03T11:31:27.625Z,79.17
2019-03-03T11:34:15.919Z,79.99
2019-03-03T11:37:07.735Z,78.83
2019-03-03T11:39:56.162Z,80.06
2019-03-03T11:42:45.084Z,79.88
2019-03-03T11:45:33.390Z,79.86
2019-03-03T11:48:21.777Z,79.50
2019-03-03T11:50:56.708Z,80.38
2019-03-03T11:53:45.243Z,80.04
2019-03-03T11:59:48.503Z,78.55
2019-03-03T12:02:24.738Z,77.79
2019-03-03T12:05:13.063Z,77.06
2019-03-03T12:08:01.369Z,76.54
2019-03-03T12:10:50.072Z,75.33
2019-03-03T12:13:24.151Z,74.78
2019-03-03T12:16:12.717Z,72.62
2019-03-03T12:19:01.793Z,72.15
2019-03-03T12:21:51.345Z,72.51
2019-03-03T12:24:29.836Z,71.19
2019-03-03T12:27:08.548Z,70.13
2019-03-03T12:29:56.802Z,69.25
2019-03-03T12:32:45.200Z,68.38
2019-03-03T12:35:33.467Z,69.00
2019-03-03T12:38:21.865Z,69.10
2019-03-03T12:41:10.197Z,68.17
2019-03-03T12:43:58.689Z,67.71
2019-03-03T12:46:47.510Z,67.69
2019-03-03T12:49:36.085Z,67.57
2019-03-03T12:52:24.491Z,67.56
2019-03-03T12:55:12.860Z,67.75
2019-03-03T12:58:01.196Z,66.58
2019-03-03T13:00:49.590Z,67.23
2019-03-03T13:03:40.448Z,68.31
2019-03-03T13:06:30.397Z,66.96
2019-03-03T13:09:31.064Z,66.60
2019-03-03T13:12:20.581Z,67.16
2019-03-03T13:15:08.945Z,66.16
2019-03-03T13:17:57.273Z,66.13
2019-03-03T13:20:45.573Z,65.92
2019-03-03T13:23:24.182Z,66.95
2019-03-03T13:26:12.483Z,67.15
2019-03-03T13:29:00.786Z,67.10
2019-03-03T13:34:42.770Z,66.32
2019-03-03T13:37:31.077Z,66.14
2019-03-03T13:40:19.601Z,64.98
2019-03-03T13:42:57.233Z,65.44
2019-03-03T13:45:49.347Z,65.53
2019-03-03T13:48:30.299Z,65.43
2019-03-03T13:51:02.294Z,65.57
2019-03-03T13:53:32.003Z,64.46
2019-03-03T13:56:01.599Z,65.13
2019-03-03T13:58:36.341Z,64.74
2019-03-03T14:01:05.851Z,64.86
2019-03-03T14:03:35.295Z,65.94
2019-03-03T14:06:25.050Z,64.79
2019-03-03T14:14:55.678Z,64.73
2019-03-03T14:17:37.461Z,65.30
2019-03-03T14:20:29.741Z,65.30
2019-03-03T14:25:49.299Z,62.84
2019-03-03T14:28:18.911Z,63.38
2019-03-03T14:36:13.663Z,64.22
2019-03-03T14:38:43.244Z,63.57
2019-03-03T14:41:12.651Z,63.56
2019-03-03T14:43:42.076Z,62.61
2019-03-03T14:46:30.612Z,63.49
2019-03-03T14:49:11.635Z,62.94
2019-03-03T14:51:52.322Z,62.67
2019-03-03T14:54:21.805Z,62.70
2019-03-03T14:56:54.248Z,62.35
2019-03-03T14:59:26.084Z,63.02
2019-03-03T15:01:55.474Z,62.86
2019-03-03T15:07:03.486Z,63.03
2019-03-03T15:09:34.163Z,62.62
2019-03-03T15:12:03.662Z,62.06
2019-03-03T15:14:39.118Z,62.03
2019-03-03T15:17:08.513Z,62.46
2019-03-03T15:19:37.934Z,62.46
2019-03-03T15:22:07.448Z,62.49
2019-03-03T15:24:36.831Z,62.27
2019-03-03T15:27:06.312Z,62.60
2019-03-03T15:29:35.786Z,63.17
2019-03-03T15:32:05.288Z,63.59
2019-03-03T15:34:34.700Z,63.79
2019-03-03T15:39:40.778Z,64.00
2019-03-03T15:42:10.332Z,64.58
2019-03-03T15:44:39.862Z,64.80
2019-03-03T15:47:09.515Z,65.01
2019-03-03T15:49:38.973Z,65.27
2019-03-03T15:52:27.323Z,65.71
2019-03-03T15:54:57.479Z,66.05
2019-03-03T15:57:47.360Z,66.47
2019-03-03T16:08:54.499Z,67.25
2019-03-03T16:11:24.157Z,67.57
2019-03-03T16:13:53.538Z,67.67
2019-03-03T16:16:23.023Z,67.90
2019-03-03T16:18:52.566Z,68.03
2019-03-03T16:21:21.976Z,68.02
2019-03-03T16:23:53.983Z,68.31
2019-03-03T16:28:59.042Z,67.75
2019-03-03T16:34:03.726Z,67.30
2019-03-03T16:36:33.313Z,67.47
2019-03-03T16:39:02.701Z,66.89
2019-03-03T16:41:32.206Z,66.99
2019-03-03T16:46:37.052Z,67.31
2019-03-03T16:49:06.509Z,67.52
2019-03-03T16:51:55.090Z,67.62
2019-03-03T16:54:24.517Z,67.71
2019-03-03T16:56:54.960Z,68.18
2019-03-03T16:59:24.334Z,68.66
2019-03-03T17:01:54.126Z,69.08
2019-03-03T17:04:23.505Z,69.53
2019-03-03T17:06:53.011Z,69.84
2019-03-03T17:09:22.463Z,70.12
2019-03-03T17:11:51.940Z,70.45
2019-03-03T17:14:21.409Z,70.73
2019-03-03T17:16:51.150Z,71.02
2019-03-03T17:19:20.713Z,71.11
2019-03-03T17:21:50.313Z,71.14
2019-03-03T17:24:19.829Z,71.14
2019-03-03T17:26:49.319Z,71.11
2019-03-03T17:29:18.788Z,70.94
2019-03-03T17:34:23.204Z,70.77
2019-03-03T17:36:52.805Z,70.97
2019-03-03T17:39:22.260Z,70.99
2019-03-03T17:41:53.267Z,71.19
2019-03-03T17:44:22.838Z,71.46
2019-03-03T17:46:52.409Z,71.73
2019-03-03T17:49:21.862Z,71.94
2019-03-03T17:51:51.438Z,72.19
2019-03-03T17:54:20.978Z,72.33
2019-03-03T17:56:50.865Z,72.42
2019-03-03T18:01:56.326Z,72.60
2019-03-03T18:07:01.353Z,72.38
2019-03-03T18:09:30.980Z,72.44
2019-03-03T18:12:19.327Z,72.42
2019-03-03T18:14:49.246Z,72.18
2019-03-03T18:17:18.818Z,72.22
2019-03-03T18:19:48.393Z,72.21
2019-03-03T18:22:18.266Z,72.28
2019-03-03T18:24:47.711Z,72.06
2019-03-03T18:27:17.147Z,72.09
2019-03-03T18:29:46.578Z,71.95
2019-03-03T18:37:45.356Z,71.95
2019-03-03T18:43:17.527Z,71.94
2019-03-03T18:45:47.315Z,71.95
2019-03-03T18:48:16.763Z,72.02
2019-03-03T18:50:46.328Z,72.18
2019-03-03T18:53:15.878Z,72.08
2019-03-03T18:55:45.346Z,72.15
2019-03-03T18:58:14.793Z,72.05
2019-03-03T19:00:45.250Z,72.01
2019-03-03T19:03:14.674Z,71.94
2019-03-03T19:05:44.415Z,71.99
2019-03-03T19:08:13.860Z,71.94
2019-03-03T19:10:43.576Z,71.71
2019-03-03T19:13:13.055Z,71.62
2019-03-03T19:18:31.458Z,71.64
2019-03-03T19:21:00.991Z,71.52
2019-03-03T19:23:30.483Z,71.59
2019-03-03T19:28:35.193Z,71.66
2019-03-03T19:31:04.744Z,71.76
2019-03-03T19:33:55.505Z,71.88
2019-03-03T19:36:39.320Z,71.85
2019-03-03T19:38:58.085Z,71.78
2019-03-03T19:41:39.184Z,71.87
2019-03-03T19:44:08.601Z,71.88
2019-03-03T19:46:38.113Z,71.86
2019-03-03T19:49:07.680Z,71.88
2019-03-03T19:51:37.102Z,71.92
2019-03-03T19:54:06.507Z,71.89
2019-03-03T19:59:10.863Z,71.78
2019-03-03T20:01:51.529Z,71.90
2019-03-03T20:04:33.313Z,72.07
2019-03-03T20:07:02.824Z,72.28
2019-03-03T20:09:59.767Z,72.32
2019-03-03T20:12:29.393Z,72.38
2019-03-03T20:15:01.821Z,72.46
2019-03-03T20:17:31.355Z,72.53
2019-03-03T20:22:37.653Z,72.60
2019-03-03T20:25:26.356Z,72.66
2019-03-03T20:27:56.022Z,72.85
2019-03-03T20:30:25.633Z,73.05
2019-03-03T20:32:55.838Z,73.21
2019-03-03T20:35:25.350Z,73.26
2019-03-03T20:37:54.913Z,73.30
2019-03-03T20:40:24.508Z,73.36
2019-03-03T20:42:53.992Z,73.50
2019-03-03T20:45:24.369Z,73.50
2019-03-03T20:47:53.941Z,73.57
2019-03-03T20:50:43.741Z,73.62
2019-03-03T20:53:24.619Z,73.45
2019-03-03T20:55:56.905Z,73.48
2019-03-03T20:58:45.274Z,73.53
2019-03-03T21:06:48.802Z,73.45
2019-03-03T21:09:30.323Z,73.46
2019-03-03T21:11:59.875Z,73.45
2019-03-03T21:14:29.342Z,73.40
2019-03-03T21:16:58.764Z,73.39
2019-03-03T21:19:42.297Z,73.37
2019-03-03T21:21:59.467Z,73.21
2019-03-03T21:24:51.322Z,73.35
2019-03-03T21:30:20.127Z,73.22
2019-03-03T21:33:09.943Z,73.20
2019-03-03T21:38:34.718Z,73.11
2019-03-03T21:41:04.230Z,73.18
2019-03-03T21:43:35.666Z,73.26
2019-03-03T21:46:05.246Z,73.33
2019-03-03T21:48:34.640Z,73.25
2019-03-03T21:53:54.498Z,73.20
2019-03-03T21:56:24.035Z,73.12
2019-03-03T21:58:53.440Z,73.09
2019-03-03T22:07:05.690Z,73.00
2019-03-03T22:09:35.056Z,72.91
2019-03-03T22:12:15.902Z,72.84
2019-03-03T22:14:45.559Z,72.73
2019-03-03T22:17:15.003Z,72.59
2019-03-03T22:19:44.444Z,72.44
2019-03-03T22:22:13.819Z,72.37
2019-03-03T22:24:43.225Z,72.36
2019-03-03T22:27:13.206Z,72.40
2019-03-03T22:29:42.577Z,72.40
2019-03-03T22:32:11.999Z,72.30
2019-03-03T22:34:41.442Z,72.39
2019-03-03T22:37:10.917Z,72.36
2019-03-03T22:39:40.306Z,72.43
2019-03-03T22:42:09.744Z,72.53
2019-03-03T22:44:39.142Z,72.63
2019-03-03T22:47:08.512Z,72.87
2019-03-03T22:49:37.945Z,73.04
2019-03-03T22:52:07.382Z,73.13
2019-03-03T22:54:36.763Z,73.25
2019-03-03T22:57:06.202Z,73.54
2019-03-03T22:59:35.585Z,73.85
2019-03-03T23:02:05.187Z,73.90
2019-03-03T23:04:51.797Z,74.24
2019-03-03T23:07:59.311Z,74.48
2019-03-03T23:11:06.727Z,74.70
2019-03-03T23:16:31.022Z,75.17
2019-03-03T23:19:38.492Z,75.44
2019-03-03T23:22:51.754Z,75.78
2019-03-03T23:25:49.315Z,76.32
2019-03-03T23:28:39.473Z,76.55
2019-03-03T23:31:08.917Z,77.00
2019-03-03T23:33:38.369Z,77.27
2019-03-03T23:36:07.925Z,77.64
2019-03-03T23:38:37.342Z,78.06
2019-03-03T23:41:06.765Z,78.18
2019-03-03T23:43:36.402Z,78.45
2019-03-03T23:46:05.793Z,78.50
2019-03-03T23:48:35.213Z,78.71
2019-03-03T23:53:43.524Z,78.79
2019-03-03T23:56:32.269Z,78.76
2019-03-03T23:59:01.953Z,78.90
